sensor_id;sensor_type;location;lat;lon;timestamp;temperature;humidity
8711;DHT22;4392;47.400;8.062;2024-02-04T04:36:51;9.40;99.90
8711;DHT22;4392;47.400;8.062;2024-02-04T04:39:16;9.10;99.90
8711;DHT22;4392;47.400;8.062;2024-02-04T04:41:44;8.30;99.90
8711;DHT22;4392;47.400;8.062;2024-02-04T04:44:10;7.80;99.90
8711;DHT22;4392;47.400;8.062;2024-02-04T04:46:41;7.30;99.90
8711;DHT22;4392;47.400;8.062;2024-02-04T04:49:07;7.10;99.90
8711;DHT22;4392;47.400;8.062;2024-02-04T04:51:32;7.10;99.90
8711;DHT22;4392;47.400;8.062;2024-02-04T04:53:58;7.00;99.90
8711;DHT22;4392;47.400;8.062;2024-02-04T04:56:24;7.00;99.90
8711;DHT22;4392;47.400;8.062;2024-02-04T04:58:50;6.90;99.90
8711;DHT22;4392;47.400;8.062;2024-02-04T05:01:16;6.90;99.90
8711;DHT22;4392;47.400;8.062;2024-02-04T05:03:44;6.90;99.90
8711;DHT22;4392;47.400;8.062;2024-02-04T05:06:09;6.80;99.90
8711;DHT22;4392;47.400;8.062;2024-02-04T05:08:35;6.80;99.90
8711;DHT22;4392;47.400;8.062;2024-02-04T05:11:01;6.80;99.90
8711;DHT22;4392;47.400;8.062;2024-02-04T05:13:26;6.70;99.90
8711;DHT22;4392;47.400;8.062;2024-02-04T05:15:54;6.80;99.90
8711;DHT22;4392;47.400;8.062;2024-02-04T05:18:20;8.50;99.90
8711;DHT22;4392;47.400;8.062;2024-02-04T05:20:45;8.30;99.90
8711;DHT22;4392;47.400;8.062;2024-02-04T05:23:11;7.70;99.90
8711;DHT22;4392;47.400;8.062;2024-02-04T05:25:37;7.40;99.90
8711;DHT22;4392;47.400;8.062;2024-02-04T05:28:03;7.20;99.90
8711;DHT22;4392;47.400;8.062;2024-02-04T05:30:29;7.10;99.90
8711;DHT22;4392;47.400;8.062;2024-02-04T05:32:55;6.90;99.90
8711;DHT22;4392;47.400;8.062;2024-02-04T05:35:22;6.70;99.90
8711;DHT22;4392;47.400;8.062;2024-02-04T05:37:48;6.70;99.90
8711;DHT22;4392;47.400;8.062;2024-02-04T05:40:14;6.70;99.90
8711;DHT22;4392;47.400;8.062;2024-02-04T05:42:42;6.70;99.90
8711;DHT22;4392;47.400;8.062;2024-02-04T05:45:08;6.80;99.90
8711;DHT22;4392;47.400;8.062;2024-02-04T05:47:34;6.80;99.90
8711;DHT22;4392;47.400;8.062;2024-02-04T05:49:59;6.80;99.90
8711;DHT22;4392;47.400;8.062;2024-02-04T05:52:25;7.20;99.90
8711;DHT22;4392;47.400;8.062;2024-02-04T05:54:51;7.30;99.90
8711;DHT22;4392;47.400;8.062;2024-02-04T05:57:16;7.30;99.90
8711;DHT22;4392;47.400;8.062;2024-02-04T05:59:42;7.20;99.90
8711;DHT22;4392;47.400;8.062;2024-02-04T06:02:07;7.20;99.90
8711;DHT22;4392;47.400;8.062;2024-02-04T06:04:33;7.10;99.90
8711;DHT22;4392;47.400;8.062;2024-02-04T06:07:00;6.80;99.90
8711;DHT22;4392;47.400;8.062;2024-02-04T06:09:25;6.60;99.90
8711;DHT22;4392;47.400;8.062;2024-02-04T06:11:51;6.80;99.90
8711;DHT22;4392;47.400;8.062;2024-02-04T06:14:16;7.00;99.90
8711;DHT22;4392;47.400;8.062;2024-02-04T06:16:42;7.00;99.90
8711;DHT22;4392;47.400;8.062;2024-02-04T06:19:08;7.00;99.90
8711;DHT22;4392;47.400;8.062;2024-02-04T06:21:34;7.00;99.90
8711;DHT22;4392;47.400;8.062;2024-02-04T06:24:00;7.00;99.90
8711;DHT22;4392;47.400;8.062;2024-02-04T06:26:25;6.80;99.90
8711;DHT22;4392;47.400;8.062;2024-02-04T06:28:51;6.40;99.90
8711;DHT22;4392;47.400;8.062;2024-02-04T06:31:17;6.50;99.90
8711;DHT22;4392;47.400;8.062;2024-02-04T06:33:43;6.60;99.90
8711;DHT22;4392;47.400;8.062;2024-02-04T06:36:09;6.70;99.90
8711;DHT22;4392;47.400;8.062;2024-02-04T06:38:36;6.70;99.90
8711;DHT22;4392;47.400;8.062;2024-02-04T06:41:01;6.80;99.90
8711;DHT22;4392;47.400;8.062;2024-02-04T06:43:27;6.80;99.90
8711;DHT22;4392;47.400;8.062;2024-02-04T06:45:52;6.80;99.90
8711;DHT22;4392;47.400;8.062;2024-02-04T06:48:21;6.80;99.90
8711;DHT22;4392;47.400;8.062;2024-02-04T06:50:47;6.80;99.90
8711;DHT22;4392;47.400;8.062;2024-02-04T06:53:14;6.80;99.90
8711;DHT22;4392;47.400;8.062;2024-02-04T06:55:39;6.80;99.90
8711;DHT22;4392;47.400;8.062;2024-02-04T06:58:05;6.70;99.90
8711;DHT22;4392;47.400;8.062;2024-02-04T07:00:33;6.80;99.90
8711;DHT22;4392;47.400;8.062;2024-02-04T07:02:59;6.80;99.90
8711;DHT22;4392;47.400;8.062;2024-02-04T07:05:25;6.80;99.90
8711;DHT22;4392;47.400;8.062;2024-02-04T07:07:51;6.80;99.90
8711;DHT22;4392;47.400;8.062;2024-02-04T07:10:17;6.80;99.90
8711;DHT22;4392;47.400;8.062;2024-02-04T07:12:43;6.80;99.90
8711;DHT22;4392;47.400;8.062;2024-02-04T07:15:08;6.70;99.90
8711;DHT22;4392;47.400;8.062;2024-02-04T07:17:34;6.60;99.90
8711;DHT22;4392;47.400;8.062;2024-02-04T07:20:01;6.60;99.90
8711;DHT22;4392;47.400;8.062;2024-02-04T07:22:27;6.60;99.90
8711;DHT22;4392;47.400;8.062;2024-02-04T07:24:55;6.60;99.90
8711;DHT22;4392;47.400;8.062;2024-02-04T07:27:20;6.60;99.90
8711;DHT22;4392;47.400;8.062;2024-02-04T07:29:46;6.60;99.90
8711;DHT22;4392;47.400;8.062;2024-02-04T07:32:15;6.70;99.90
8711;DHT22;4392;47.400;8.062;2024-02-04T07:34:41;6.70;99.90
8711;DHT22;4392;47.400;8.062;2024-02-04T07:37:06;6.70;99.90
8711;DHT22;4392;47.400;8.062;2024-02-04T07:39:34;6.60;99.90
8711;DHT22;4392;47.400;8.062;2024-02-04T07:42:00;6.60;99.90
8711;DHT22;4392;47.400;8.062;2024-02-04T07:44:27;6.60;99.90
8711;DHT22;4392;47.400;8.062;2024-02-04T07:46:55;6.70;99.90
8711;DHT22;4392;47.400;8.062;2024-02-04T07:49:21;6.60;99.90
8711;DHT22;4392;47.400;8.062;2024-02-04T07:51:47;6.80;99.90
8711;DHT22;4392;47.400;8.062;2024-02-04T07:54:12;7.00;99.90
8711;DHT22;4392;47.400;8.062;2024-02-04T07:56:38;7.00;99.90
8711;DHT22;4392;47.400;8.062;2024-02-04T07:59:04;6.90;99.90
8711;DHT22;4392;47.400;8.062;2024-02-04T08:01:30;6.90;99.90
8711;DHT22;4392;47.400;8.062;2024-02-04T08:03:56;6.80;99.90
8711;DHT22;4392;47.400;8.062;2024-02-04T08:06:21;6.80;99.90
8711;DHT22;4392;47.400;8.062;2024-02-04T08:08:47;6.90;99.90
8711;DHT22;4392;47.400;8.062;2024-02-04T08:11:18;6.90;99.90
8711;DHT22;4392;47.400;8.062;2024-02-04T08:13:44;6.90;99.90
8711;DHT22;4392;47.400;8.062;2024-02-04T08:16:11;7.00;99.90
8711;DHT22;4392;47.400;8.062;2024-02-04T08:18:36;7.10;99.90
8711;DHT22;4392;47.400;8.062;2024-02-04T08:21:02;7.10;99.90
8711;DHT22;4392;47.400;8.062;2024-02-04T08:23:28;7.10;99.90
8711;DHT22;4392;47.400;8.062;2024-02-04T08:25:54;6.90;99.90
8711;DHT22;4392;47.400;8.062;2024-02-04T08:28:19;6.70;99.90
8711;DHT22;4392;47.400;8.062;2024-02-04T08:30:45;6.80;99.90
8711;DHT22;4392;47.400;8.062;2024-02-04T08:33:10;6.80;99.90
8711;DHT22;4392;47.400;8.062;2024-02-04T08:35:36;6.90;99.90
8711;DHT22;4392;47.400;8.062;2024-02-04T08:38:02;6.90;99.90
8711;DHT22;4392;47.400;8.062;2024-02-04T08:40:27;7.10;99.90
8711;DHT22;4392;47.400;8.062;2024-02-04T08:42:53;7.30;99.90
8711;DHT22;4392;47.400;8.062;2024-02-04T08:45:19;7.20;99.90
8711;DHT22;4392;47.400;8.062;2024-02-04T08:47:44;7.20;99.90
8711;DHT22;4392;47.400;8.062;2024-02-04T08:50:10;7.20;99.90
8711;DHT22;4392;47.400;8.062;2024-02-04T08:52:39;7.10;99.90
8711;DHT22;4392;47.400;8.062;2024-02-04T08:55:07;7.10;99.90
8711;DHT22;4392;47.400;8.062;2024-02-04T08:57:34;7.10;99.90
8711;DHT22;4392;47.400;8.062;2024-02-04T09:00:00;6.90;99.90
8711;DHT22;4392;47.400;8.062;2024-02-04T09:02:28;6.90;99.90
8711;DHT22;4392;47.400;8.062;2024-02-04T09:04:54;7.00;99.90
8711;DHT22;4392;47.400;8.062;2024-02-04T09:07:21;7.10;99.90
8711;DHT22;4392;47.400;8.062;2024-02-04T09:09:47;7.10;99.90
8711;DHT22;4392;47.400;8.062;2024-02-04T09:12:13;7.10;99.90
8711;DHT22;4392;47.400;8.062;2024-02-04T09:14:38;7.10;99.90
8711;DHT22;4392;47.400;8.062;2024-02-04T09:17:05;7.00;99.90
8711;DHT22;4392;47.400;8.062;2024-02-04T09:19:32;7.10;99.90
8711;DHT22;4392;47.400;8.062;2024-02-04T09:21:57;7.10;99.90
8711;DHT22;4392;47.400;8.062;2024-02-04T09:24:23;7.10;99.90
8711;DHT22;4392;47.400;8.062;2024-02-04T09:26:49;7.10;99.90
8711;DHT22;4392;47.400;8.062;2024-02-04T09:29:14;7.20;99.90
8711;DHT22;4392;47.400;8.062;2024-02-04T09:31:40;7.20;99.90
8711;DHT22;4392;47.400;8.062;2024-02-04T09:34:06;6.80;99.90
8711;DHT22;4392;47.400;8.062;2024-02-04T09:36:31;6.80;99.90
8711;DHT22;4392;47.400;8.062;2024-02-04T09:38:59;6.90;99.90
8711;DHT22;4392;47.400;8.062;2024-02-04T09:41:25;7.10;99.90
8711;DHT22;4392;47.400;8.062;2024-02-04T09:43:52;7.20;99.90
8711;DHT22;4392;47.400;8.062;2024-02-04T09:46:24;7.20;99.90
8711;DHT22;4392;47.400;8.062;2024-02-04T09:48:53;7.30;99.90
8711;DHT22;4392;47.400;8.062;2024-02-04T09:51:20;7.30;99.90
8711;DHT22;4392;47.400;8.062;2024-02-04T09:53:51;7.30;99.90
8711;DHT22;4392;47.400;8.062;2024-02-04T09:56:22;7.30;99.90
8711;DHT22;4392;47.400;8.062;2024-02-04T09:58:49;7.20;99.90
8711;DHT22;4392;47.400;8.062;2024-02-04T10:01:19;7.20;99.90
8711;DHT22;4392;47.400;8.062;2024-02-04T10:03:44;7.30;99.90
8711;DHT22;4392;47.400;8.062;2024-02-04T10:06:14;7.40;99.90
8711;DHT22;4392;47.400;8.062;2024-02-04T10:08:40;7.40;99.90
8711;DHT22;4392;47.400;8.062;2024-02-04T10:11:07;7.40;99.90
8711;DHT22;4392;47.400;8.062;2024-02-04T10:13:45;7.50;99.90
8711;DHT22;4392;47.400;8.062;2024-02-04T10:16:15;7.50;99.90
8711;DHT22;4392;47.400;8.062;2024-02-04T10:18:45;7.60;99.90
8711;DHT22;4392;47.400;8.062;2024-02-04T10:21:20;7.50;99.90
8711;DHT22;4392;47.400;8.062;2024-02-04T10:23:47;7.40;99.90
8711;DHT22;4392;47.400;8.062;2024-02-04T10:26:12;7.20;99.90
8711;DHT22;4392;47.400;8.062;2024-02-04T10:28:38;7.40;99.90
8711;DHT22;4392;47.400;8.062;2024-02-04T10:31:09;7.50;99.90
8711;DHT22;4392;47.400;8.062;2024-02-04T10:33:35;7.60;99.90
8711;DHT22;4392;47.400;8.062;2024-02-04T10:36:01;7.60;99.90
8711;DHT22;4392;47.400;8.062;2024-02-04T10:38:27;7.60;99.90
8711;DHT22;4392;47.400;8.062;2024-02-04T10:40:58;7.70;99.90
8711;DHT22;4392;47.400;8.062;2024-02-04T10:43:24;7.70;99.90
8711;DHT22;4392;47.400;8.062;2024-02-04T10:45:56;7.30;99.90
8711;DHT22;4392;47.400;8.062;2024-02-04T10:48:25;7.30;99.90
8711;DHT22;4392;47.400;8.062;2024-02-04T10:50:54;7.20;99.90
8711;DHT22;4392;47.400;8.062;2024-02-04T10:53:22;7.20;99.90
8711;DHT22;4392;47.400;8.062;2024-02-04T10:55:51;7.50;99.90
8711;DHT22;4392;47.400;8.062;2024-02-04T10:58:19;7.60;99.90
8711;DHT22;4392;47.400;8.062;2024-02-04T11:00:45;7.70;99.90
8711;DHT22;4392;47.400;8.062;2024-02-04T11:03:15;7.80;99.90
8711;DHT22;4392;47.400;8.062;2024-02-04T11:05:42;7.90;99.90
8711;DHT22;4392;47.400;8.062;2024-02-04T11:08:10;7.90;99.90
8711;DHT22;4392;47.400;8.062;2024-02-04T11:10:39;7.90;99.90
8711;DHT22;4392;47.400;8.062;2024-02-04T11:13:06;7.90;99.90
8711;DHT22;4392;47.400;8.062;2024-02-04T11:15:38;7.90;99.90
8711;DHT22;4392;47.400;8.062;2024-02-04T11:26:19;7.90;99.90
8711;DHT22;4392;47.400;8.062;2024-02-04T11:28:45;8.00;99.90
8711;DHT22;4392;47.400;8.062;2024-02-04T11:31:18;8.10;99.90
8711;DHT22;4392;47.400;8.062;2024-02-04T11:33:44;8.10;99.90
8711;DHT22;4392;47.400;8.062;2024-02-04T11:36:14;8.20;99.90
8711;DHT22;4392;47.400;8.062;2024-02-04T11:38:40;8.30;99.90
8711;DHT22;4392;47.400;8.062;2024-02-04T11:41:06;8.40;99.90
8711;DHT22;4392;47.400;8.062;2024-02-04T11:43:33;8.40;99.90
8711;DHT22;4392;47.400;8.062;2024-02-04T11:46:03;8.40;99.90
8711;DHT22;4392;47.400;8.062;2024-02-04T11:48:30;8.50;99.90
8711;DHT22;4392;47.400;8.062;2024-02-04T11:50:59;8.50;99.90
8711;DHT22;4392;47.400;8.062;2024-02-04T11:53:29;8.60;99.90
8711;DHT22;4392;47.400;8.062;2024-02-04T11:55:58;8.70;99.90
8711;DHT22;4392;47.400;8.062;2024-02-04T11:58:26;8.80;99.90
8711;DHT22;4392;47.400;8.062;2024-02-04T12:00:52;8.80;99.90
8711;DHT22;4392;47.400;8.062;2024-02-04T12:03:29;8.80;99.90
8711;DHT22;4392;47.400;8.062;2024-02-04T12:05:55;8.80;99.90
8711;DHT22;4392;47.400;8.062;2024-02-04T12:08:21;8.90;99.90
8711;DHT22;4392;47.400;8.062;2024-02-04T12:10:48;8.90;99.90
8711;DHT22;4392;47.400;8.062;2024-02-04T12:13:15;8.90;99.90
8711;DHT22;4392;47.400;8.062;2024-02-04T12:15:41;8.90;99.90
8711;DHT22;4392;47.400;8.062;2024-02-04T12:18:09;8.90;99.90
8711;DHT22;4392;47.400;8.062;2024-02-04T12:20:35;8.80;99.90
8711;DHT22;4392;47.400;8.062;2024-02-04T12:23:05;9.00;99.90
8711;DHT22;4392;47.400;8.062;2024-02-04T12:25:32;9.20;99.90
8711;DHT22;4392;47.400;8.062;2024-02-04T12:27:58;9.30;99.90
8711;DHT22;4392;47.400;8.062;2024-02-04T12:30:25;9.30;99.90
8711;DHT22;4392;47.400;8.062;2024-02-04T12:33:00;9.10;99.90
8711;DHT22;4392;47.400;8.062;2024-02-04T12:35:27;9.20;99.90
8711;DHT22;4392;47.400;8.062;2024-02-04T12:37:54;9.40;99.90
8711;DHT22;4392;47.400;8.062;2024-02-04T12:40:33;9.50;99.90
8711;DHT22;4392;47.400;8.062;2024-02-04T12:43:02;9.50;99.90
8711;DHT22;4392;47.400;8.062;2024-02-04T12:45:28;10.40;99.90
8711;DHT22;4392;47.400;8.062;2024-02-04T12:47:56;11.00;99.90
8711;DHT22;4392;47.400;8.062;2024-02-04T12:50:23;10.60;99.90
8711;DHT22;4392;47.400;8.062;2024-02-04T12:53:06;10.40;99.90
8711;DHT22;4392;47.400;8.062;2024-02-04T12:55:35;10.40;99.90
8711;DHT22;4392;47.400;8.062;2024-02-04T12:58:09;10.30;99.90
8711;DHT22;4392;47.400;8.062;2024-02-04T13:00:38;10.30;99.90
8711;DHT22;4392;47.400;8.062;2024-02-04T13:03:05;10.30;99.90
8711;DHT22;4392;47.400;8.062;2024-02-04T13:05:33;10.80;99.90
8711;DHT22;4392;47.400;8.062;2024-02-04T13:08:00;11.50;99.90
8711;DHT22;4392;47.400;8.062;2024-02-04T13:10:34;11.10;99.90
8711;DHT22;4392;47.400;8.062;2024-02-04T13:13:05;10.80;99.90
8711;DHT22;4392;47.400;8.062;2024-02-04T13:15:39;10.80;99.90
8711;DHT22;4392;47.400;8.062;2024-02-04T13:18:05;10.80;99.90
8711;DHT22;4392;47.400;8.062;2024-02-04T13:20:31;10.70;99.90
8711;DHT22;4392;47.400;8.062;2024-02-04T13:22:57;11.60;99.90
8711;DHT22;4392;47.400;8.062;2024-02-04T13:25:23;11.30;99.90
8711;DHT22;4392;47.400;8.062;2024-02-04T13:27:49;11.20;99.90
8711;DHT22;4392;47.400;8.062;2024-02-04T13:30:16;11.10;99.90
8711;DHT22;4392;47.400;8.062;2024-02-04T13:32:42;11.10;99.90
8711;DHT22;4392;47.400;8.062;2024-02-04T13:35:08;11.10;99.90
8711;DHT22;4392;47.400;8.062;2024-02-04T13:37:43;12.20;99.90
8711;DHT22;4392;47.400;8.062;2024-02-04T13:40:16;11.90;99.90
8711;DHT22;4392;47.400;8.062;2024-02-04T13:42:42;11.70;99.90
8711;DHT22;4392;47.400;8.062;2024-02-04T13:45:08;11.70;99.90
8711;DHT22;4392;47.400;8.062;2024-02-04T13:47:35;11.80;99.90
8711;DHT22;4392;47.400;8.062;2024-02-04T13:50:01;11.80;99.90
8711;DHT22;4392;47.400;8.062;2024-02-04T13:52:27;12.10;99.90
8711;DHT22;4392;47.400;8.062;2024-02-04T13:54:52;12.30;99.90
8711;DHT22;4392;47.400;8.062;2024-02-04T13:57:18;12.50;99.90
8711;DHT22;4392;47.400;8.062;2024-02-04T13:59:43;12.80;99.90
8711;DHT22;4392;47.400;8.062;2024-02-04T14:02:09;13.00;99.90
8711;DHT22;4392;47.400;8.062;2024-02-04T14:04:35;13.30;99.90
8711;DHT22;4392;47.400;8.062;2024-02-04T14:07:01;13.20;99.90
8711;DHT22;4392;47.400;8.062;2024-02-04T14:09:27;13.20;99.90
8711;DHT22;4392;47.400;8.062;2024-02-04T14:11:53;13.40;99.90
8711;DHT22;4392;47.400;8.062;2024-02-04T14:14:24;13.20;99.20
8711;DHT22;4392;47.400;8.062;2024-02-04T14:16:50;13.00;98.50
8711;DHT22;4392;47.400;8.062;2024-02-04T14:19:16;13.60;97.90
8711;DHT22;4392;47.400;8.062;2024-02-04T14:21:42;13.20;94.00
8711;DHT22;4392;47.400;8.062;2024-02-04T14:24:08;12.70;93.50
8711;DHT22;4392;47.400;8.062;2024-02-04T14:26:36;12.50;93.60
8711;DHT22;4392;47.400;8.062;2024-02-04T14:29:02;12.50;93.70
8711;DHT22;4392;47.400;8.062;2024-02-04T14:31:28;12.30;94.20
8711;DHT22;4392;47.400;8.062;2024-02-04T14:33:56;12.10;94.80
8711;DHT22;4392;47.400;8.062;2024-02-04T14:36:21;11.80;95.20
8711;DHT22;4392;47.400;8.062;2024-02-04T14:38:47;11.70;95.80
8711;DHT22;4392;47.400;8.062;2024-02-04T14:41:13;11.50;96.00
8711;DHT22;4392;47.400;8.062;2024-02-04T14:43:38;11.50;98.10
8711;DHT22;4392;47.400;8.062;2024-02-04T14:46:04;11.80;97.20
8711;DHT22;4392;47.400;8.062;2024-02-04T14:48:30;11.90;96.70
8711;DHT22;4392;47.400;8.062;2024-02-04T14:50:56;12.50;96.20
8711;DHT22;4392;47.400;8.062;2024-02-04T14:53:24;12.00;95.50
8711;DHT22;4392;47.400;8.062;2024-02-04T14:55:50;11.60;95.80
8711;DHT22;4392;47.400;8.062;2024-02-04T14:58:16;11.40;96.40
8711;DHT22;4392;47.400;8.062;2024-02-04T15:00:41;11.40;96.80
8711;DHT22;4392;47.400;8.062;2024-02-04T15:03:07;11.30;96.80
8711;DHT22;4392;47.400;8.062;2024-02-04T15:05:36;11.00;97.40
8711;DHT22;4392;47.400;8.062;2024-02-04T15:08:02;11.00;97.80
8711;DHT22;4392;47.400;8.062;2024-02-04T15:10:28;11.00;98.10
8711;DHT22;4392;47.400;8.062;2024-02-04T15:12:54;11.00;98.20
8711;DHT22;4392;47.400;8.062;2024-02-04T15:15:20;10.90;98.60
8711;DHT22;4392;47.400;8.062;2024-02-04T15:17:48;11.70;99.90
8711;DHT22;4392;47.400;8.062;2024-02-04T15:20:14;12.10;97.30
8711;DHT22;4392;47.400;8.062;2024-02-04T15:22:43;11.30;97.80
8711;DHT22;4392;47.400;8.062;2024-02-04T15:25:09;11.00;98.60
8711;DHT22;4392;47.400;8.062;2024-02-04T15:27:36;10.70;99.50
8711;DHT22;4392;47.400;8.062;2024-02-04T15:30:02;10.70;99.90
8711;DHT22;4392;47.400;8.062;2024-02-04T15:32:29;10.70;99.90
8711;DHT22;4392;47.400;8.062;2024-02-04T15:34:55;10.70;99.90
8711;DHT22;4392;47.400;8.062;2024-02-04T15:37:21;10.40;99.90
8711;DHT22;4392;47.400;8.062;2024-02-04T15:39:47;10.30;99.90
8711;DHT22;4392;47.400;8.062;2024-02-04T15:42:13;10.20;99.90
8711;DHT22;4392;47.400;8.062;2024-02-04T15:44:38;11.20;99.90
8711;DHT22;4392;47.400;8.062;2024-02-04T15:47:06;11.40;99.90
8711;DHT22;4392;47.400;8.062;2024-02-04T15:49:33;10.80;99.90
8711;DHT22;4392;47.400;8.062;2024-02-04T15:52:00;10.40;99.90
8711;DHT22;4392;47.400;8.062;2024-02-04T15:54:26;10.30;99.90
8711;DHT22;4392;47.400;8.062;2024-02-04T15:57:08;10.20;99.90
8711;DHT22;4392;47.400;8.062;2024-02-04T15:59:52;10.10;99.90
8711;DHT22;4392;47.400;8.062;2024-02-04T16:02:20;10.10;99.90
8711;DHT22;4392;47.400;8.062;2024-02-04T16:04:45;10.10;99.90
8711;DHT22;4392;47.400;8.062;2024-02-04T16:07:13;10.10;99.90
8711;DHT22;4392;47.400;8.062;2024-02-04T16:09:40;10.00;99.90
8711;DHT22;4392;47.400;8.062;2024-02-04T16:12:17;9.90;99.90
8711;DHT22;4392;47.400;8.062;2024-02-04T16:14:44;9.80;99.90
8711;DHT22;4392;47.400;8.062;2024-02-04T16:17:18;10.20;99.90
8711;DHT22;4392;47.400;8.062;2024-02-04T16:19:46;10.00;99.90
8711;DHT22;4392;47.400;8.062;2024-02-04T16:22:15;10.00;99.90
8711;DHT22;4392;47.400;8.062;2024-02-04T16:24:42;9.90;99.90
8711;DHT22;4392;47.400;8.062;2024-02-04T16:27:07;9.80;99.90
8711;DHT22;4392;47.400;8.062;2024-02-04T16:29:33;9.70;99.90
8711;DHT22;4392;47.400;8.062;2024-02-04T16:31:59;10.90;99.90
8711;DHT22;4392;47.400;8.062;2024-02-04T16:34:24;10.60;99.90
8711;DHT22;4392;47.400;8.062;2024-02-04T16:36:52;10.10;99.90
8711;DHT22;4392;47.400;8.062;2024-02-04T16:39:18;9.80;99.90
8711;DHT22;4392;47.400;8.062;2024-02-04T16:41:44;9.60;99.90
8711;DHT22;4392;47.400;8.062;2024-02-04T16:44:10;9.50;99.90
8711;DHT22;4392;47.400;8.062;2024-02-04T16:46:42;10.90;99.90
8711;DHT22;4392;47.400;8.062;2024-02-04T16:49:12;11.10;99.90
8711;DHT22;4392;47.400;8.062;2024-02-04T16:51:39;10.30;99.90
8711;DHT22;4392;47.400;8.062;2024-02-04T16:54:05;9.90;99.90
8711;DHT22;4392;47.400;8.062;2024-02-04T16:56:31;9.50;99.90
8711;DHT22;4392;47.400;8.062;2024-02-04T16:58:57;9.30;99.90
8711;DHT22;4392;47.400;8.062;2024-02-04T17:01:24;9.30;99.90
8711;DHT22;4392;47.400;8.062;2024-02-04T17:03:50;9.30;99.90
8711;DHT22;4392;47.400;8.062;2024-02-04T17:06:16;9.20;99.90
8711;DHT22;4392;47.400;8.062;2024-02-04T17:08:42;9.20;99.90
8711;DHT22;4392;47.400;8.062;2024-02-04T17:11:08;10.40;99.90
8711;DHT22;4392;47.400;8.062;2024-02-04T17:13:34;9.90;99.90
8711;DHT22;4392;47.400;8.062;2024-02-04T17:16:04;9.50;99.90
8711;DHT22;4392;47.400;8.062;2024-02-04T17:18:47;9.20;99.90
8711;DHT22;4392;47.400;8.062;2024-02-04T17:21:17;10.60;99.90
8711;DHT22;4392;47.400;8.062;2024-02-04T17:23:50;10.80;99.90
8711;DHT22;4392;47.400;8.062;2024-02-04T17:26:27;9.70;99.90
8711;DHT22;4392;47.400;8.062;2024-02-04T17:28:53;9.20;99.90
8711;DHT22;4392;47.400;8.062;2024-02-04T17:31:21;9.10;99.90
8711;DHT22;4392;47.400;8.062;2024-02-04T17:33:48;9.00;99.90
8711;DHT22;4392;47.400;8.062;2024-02-04T17:36:18;9.80;99.90
8711;DHT22;4392;47.400;8.062;2024-02-04T17:38:43;10.10;99.90
8711;DHT22;4392;47.400;8.062;2024-02-04T17:41:09;9.30;99.90
8711;DHT22;4392;47.400;8.062;2024-02-04T17:43:35;9.10;99.90
8711;DHT22;4392;47.400;8.062;2024-02-04T17:46:00;8.90;99.90
8711;DHT22;4392;47.400;8.062;2024-02-04T17:48:26;8.80;99.90
8711;DHT22;4392;47.400;8.062;2024-02-04T17:50:52;8.80;99.90
8711;DHT22;4392;47.400;8.062;2024-02-04T17:53:17;8.90;99.90
8711;DHT22;4392;47.400;8.062;2024-02-04T17:55:44;8.90;99.90
8711;DHT22;4392;47.400;8.062;2024-02-04T17:58:10;8.80;99.90
8711;DHT22;4392;47.400;8.062;2024-02-04T18:00:36;8.90;99.90
8711;DHT22;4392;47.400;8.062;2024-02-04T18:03:03;9.10;99.90
8711;DHT22;4392;47.400;8.062;2024-02-04T18:05:29;9.10;99.90
8711;DHT22;4392;47.400;8.062;2024-02-04T18:07:55;9.00;99.90
8711;DHT22;4392;47.400;8.062;2024-02-04T18:10:21;9.10;99.90
8711;DHT22;4392;47.400;8.062;2024-02-04T18:12:49;9.20;99.90
8711;DHT22;4392;47.400;8.062;2024-02-04T18:15:14;9.30;99.90
8711;DHT22;4392;47.400;8.062;2024-02-04T18:17:42;9.20;99.90
8711;DHT22;4392;47.400;8.062;2024-02-04T18:20:10;9.10;99.90
8711;DHT22;4392;47.400;8.062;2024-02-04T18:22:36;9.20;99.90
8711;DHT22;4392;47.400;8.062;2024-02-04T18:25:02;10.40;99.90
8711;DHT22;4392;47.400;8.062;2024-02-04T18:27:28;10.00;99.90
8711;DHT22;4392;47.400;8.062;2024-02-04T18:29:55;10.20;99.90
8711;DHT22;4392;47.400;8.062;2024-02-04T18:32:22;11.50;99.90
8711;DHT22;4392;47.400;8.062;2024-02-04T18:34:49;11.40;99.90
8711;DHT22;4392;47.400;8.062;2024-02-04T18:37:15;10.60;99.90
8711;DHT22;4392;47.400;8.062;2024-02-04T18:39:40;10.00;99.90
8711;DHT22;4392;47.400;8.062;2024-02-04T18:42:06;9.80;99.90
8711;DHT22;4392;47.400;8.062;2024-02-04T18:44:31;9.70;99.90
8711;DHT22;4392;47.400;8.062;2024-02-04T18:46:59;10.70;99.90
8711;DHT22;4392;47.400;8.062;2024-02-04T18:49:24;10.30;99.90
8711;DHT22;4392;47.400;8.062;2024-02-04T18:51:50;10.20;99.90
8711;DHT22;4392;47.400;8.062;2024-02-04T18:54:16;10.90;99.90
8711;DHT22;4392;47.400;8.062;2024-02-04T18:56:43;10.50;99.90
8711;DHT22;4392;47.400;8.062;2024-02-04T18:59:09;10.10;99.90
8711;DHT22;4392;47.400;8.062;2024-02-04T19:01:35;9.80;99.90
8711;DHT22;4392;47.400;8.062;2024-02-04T19:04:01;9.80;99.90
8711;DHT22;4392;47.400;8.062;2024-02-04T19:06:28;9.80;99.90
8711;DHT22;4392;47.400;8.062;2024-02-04T19:08:54;9.50;99.90
8711;DHT22;4392;47.400;8.062;2024-02-04T19:11:22;9.50;99.90
8711;DHT22;4392;47.400;8.062;2024-02-04T19:13:48;9.50;99.90
8711;DHT22;4392;47.400;8.062;2024-02-04T19:16:21;9.40;99.90
8711;DHT22;4392;47.400;8.062;2024-02-04T19:18:47;9.30;99.90
8711;DHT22;4392;47.400;8.062;2024-02-04T19:21:12;9.30;99.90
8711;DHT22;4392;47.400;8.062;2024-02-04T19:23:38;9.40;99.90
8711;DHT22;4392;47.400;8.062;2024-02-04T19:26:04;9.50;99.90
8711;DHT22;4392;47.400;8.062;2024-02-04T19:28:29;9.50;99.90
8711;DHT22;4392;47.400;8.062;2024-02-04T19:30:58;9.50;99.90
8711;DHT22;4392;47.400;8.062;2024-02-04T19:33:24;9.50;99.90
8711;DHT22;4392;47.400;8.062;2024-02-04T19:35:50;9.40;99.90
8711;DHT22;4392;47.400;8.062;2024-02-04T19:38:15;9.40;99.90
8711;DHT22;4392;47.400;8.062;2024-02-04T19:40:41;9.40;99.90
8711;DHT22;4392;47.400;8.062;2024-02-04T19:43:06;9.30;99.90
8711;DHT22;4392;47.400;8.062;2024-02-04T19:45:32;9.30;99.90
8711;DHT22;4392;47.400;8.062;2024-02-04T19:47:58;9.20;99.90
8711;DHT22;4392;47.400;8.062;2024-02-04T19:50:23;9.20;99.90
8711;DHT22;4392;47.400;8.062;2024-02-04T19:52:49;9.10;99.90
8711;DHT22;4392;47.400;8.062;2024-02-04T19:55:15;9.10;99.90
8711;DHT22;4392;47.400;8.062;2024-02-04T19:57:43;9.00;99.90
8711;DHT22;4392;47.400;8.062;2024-02-04T20:00:11;9.40;99.90
8711;DHT22;4392;47.400;8.062;2024-02-04T20:02:37;10.30;99.90
8711;DHT22;4392;47.400;8.062;2024-02-04T20:05:03;9.80;99.90
8711;DHT22;4392;47.400;8.062;2024-02-04T20:07:29;9.50;99.90
8711;DHT22;4392;47.400;8.062;2024-02-04T20:09:56;9.30;99.90
8711;DHT22;4392;47.400;8.062;2024-02-04T20:12:23;9.20;99.90
8711;DHT22;4392;47.400;8.062;2024-02-04T20:14:51;9.10;99.90
8711;DHT22;4392;47.400;8.062;2024-02-04T20:17:17;9.00;99.90
8711;DHT22;4392;47.400;8.062;2024-02-04T20:19:43;9.00;99.90
8711;DHT22;4392;47.400;8.062;2024-02-04T20:22:08;8.90;99.90
8711;DHT22;4392;47.400;8.062;2024-02-04T20:24:34;8.90;99.90
8711;DHT22;4392;47.400;8.062;2024-02-04T20:27:00;8.90;99.90
8711;DHT22;4392;47.400;8.062;2024-02-04T20:29:26;8.80;99.90
8711;DHT22;4392;47.400;8.062;2024-02-04T20:31:54;8.70;99.90
8711;DHT22;4392;47.400;8.062;2024-02-04T20:34:20;8.70;99.90
8711;DHT22;4392;47.400;8.062;2024-02-04T20:36:45;8.70;99.90
8711;DHT22;4392;47.400;8.062;2024-02-04T20:39:14;8.60;99.90
8711;DHT22;4392;47.400;8.062;2024-02-04T20:41:47;8.60;99.90
8711;DHT22;4392;47.400;8.062;2024-02-04T20:44:14;10.30;99.90
8711;DHT22;4392;47.400;8.062;2024-02-04T20:46:40;9.80;99.90
8711;DHT22;4392;47.400;8.062;2024-02-04T20:49:07;9.30;99.90
8711;DHT22;4392;47.400;8.062;2024-02-04T20:51:33;9.00;99.90
8711;DHT22;4392;47.400;8.062;2024-02-04T20:53:59;8.80;99.90